createdAt,value
2022-07-30T00:00:52.225Z,28.10
2022-07-30T00:03:54.075Z,26.30
2022-07-30T00:06:55.915Z,26.60
2022-07-30T00:09:57.957Z,25.90
2022-07-30T00:12:59.840Z,29.10
2022-07-30T00:16:01.715Z,27.00
2022-07-30T00:19:03.689Z,27.40
2022-07-30T00:22:05.390Z,27.40
2022-07-30T00:25:07.590Z,29.30
2022-07-30T00:28:09.494Z,30.30
2022-07-30T00:31:11.471Z,32.40
2022-07-30T00:34:16.324Z,24.90
2022-07-30T00:37:17.977Z,28.90
2022-07-30T00:40:19.773Z,32.70
2022-07-30T00:43:21.649Z,27.80
2022-07-30T00:46:23.611Z,26.90
2022-07-30T00:49:26.256Z,31.70
2022-07-30T00:52:28.313Z,30.30
2022-07-30T00:55:31.255Z,27.50
2022-07-30T00:58:33.166Z,29.90
2022-07-30T01:01:35.468Z,29.70
2022-07-30T01:04:37.247Z,27.60
2022-07-30T01:07:39.194Z,28.20
2022-07-30T01:10:40.976Z,27.90
2022-07-30T01:13:45.898Z,28.70
2022-07-30T01:16:47.712Z,30.80
2022-07-30T01:19:56.194Z,30.80
2022-07-30T01:23:18.663Z,28.70
2022-07-30T01:26:21.070Z,31.50
2022-07-30T01:29:24.641Z,34.90
2022-07-30T01:32:27.595Z,40.60
2022-07-30T01:35:33.490Z,41.30
2022-07-30T01:38:36.754Z,44.00
2022-07-30T01:41:39.492Z,44.00
2022-07-30T01:44:42.070Z,45.40
2022-07-30T01:47:45.607Z,46.50
2022-07-30T01:50:51.668Z,47.10
2022-07-30T01:53:53.850Z,48.70
2022-07-30T01:56:58.097Z,50.20
2022-07-30T02:00:05.238Z,49.80
2022-07-30T02:03:10.679Z,56.60
2022-07-30T02:06:18.373Z,60.40
2022-07-30T02:09:23.385Z,57.40
2022-07-30T02:12:29.350Z,56.30
2022-07-30T02:15:46.431Z,61.90
2022-07-30T02:18:58.798Z,62.50
2022-07-30T02:22:08.520Z,61.70
2022-07-30T02:25:15.004Z,59.50
2022-07-30T02:28:19.034Z,57.90
2022-07-30T02:31:24.864Z,53.50
2022-07-30T02:34:27.669Z,52.50
2022-07-30T02:37:43.186Z,50.90
2022-07-30T02:40:48.533Z,55.70
2022-07-30T02:43:51.449Z,54.40
2022-07-30T02:46:53.858Z,55.60
2022-07-30T02:49:57.117Z,51.10
2022-07-30T02:53:01.101Z,53.60
2022-07-30T02:56:06.042Z,59.40
2022-07-30T02:59:08.753Z,60.60
2022-07-30T03:02:12.228Z,62.30
2022-07-30T03:05:16.642Z,66.70
2022-07-30T03:08:19.836Z,62.70
2022-07-30T03:11:22.513Z,62.40
2022-07-30T03:14:24.478Z,62.10
2022-07-30T03:17:28.870Z,57.10
2022-07-30T03:20:32.126Z,55.20
2022-07-30T03:23:36.168Z,58.70
2022-07-30T03:26:39.815Z,54.90
2022-07-30T03:29:41.796Z,55.10
2022-07-30T03:32:43.836Z,62.70
2022-07-30T03:35:49.087Z,61.60
2022-07-30T03:38:51.484Z,64.50
2022-07-30T03:41:54.846Z,66.10
2022-07-30T03:44:57.632Z,64.30
2022-07-30T03:47:59.411Z,53.90
2022-07-30T03:51:06.854Z,54.50
2022-07-30T03:54:13.568Z,58.10
2022-07-30T03:57:20.232Z,54.30
2022-07-30T04:00:23.931Z,59.50
2022-07-30T04:03:30.772Z,57.70
2022-07-30T04:06:33.237Z,58.00
2022-07-30T04:09:35.279Z,59.90
2022-07-30T04:12:37.293Z,58.90
2022-07-30T04:16:05.905Z,56.50
2022-07-30T04:19:17.325Z,56.90
2022-07-30T04:22:24.468Z,55.50
2022-07-30T04:25:27.258Z,52.90
2022-07-30T04:28:30.007Z,53.00
2022-07-30T04:31:40.690Z,53.90
2022-07-30T04:34:48.203Z,50.40
2022-07-30T04:37:50.006Z,48.60
2022-07-30T04:40:51.913Z,49.50
2022-07-30T04:43:53.731Z,46.20
2022-07-30T04:46:55.507Z,54.10
2022-07-30T04:49:57.718Z,54.00
2022-07-30T04:52:59.680Z,55.00
2022-07-30T04:56:03.069Z,48.30
2022-07-30T04:59:05.582Z,50.30
2022-07-30T05:02:08.068Z,52.80
2022-07-30T05:05:12.011Z,53.20
2022-07-30T05:08:14.240Z,53.50
2022-07-30T05:11:16.416Z,51.40
2022-07-30T05:14:18.172Z,51.70
2022-07-30T05:17:20.666Z,50.00
2022-07-30T05:20:22.443Z,50.40
2022-07-30T05:23:24.921Z,55.50
2022-07-30T05:26:27.475Z,45.00
2022-07-30T05:29:29.800Z,45.90
2022-07-30T05:32:32.170Z,50.00
2022-07-30T05:35:34.082Z,46.50
2022-07-30T05:38:36.421Z,48.60
2022-07-30T05:41:38.196Z,44.60
2022-07-30T05:44:39.975Z,44.00
2022-07-30T05:47:42.285Z,38.60
2022-07-30T05:50:45.683Z,40.40
2022-07-30T05:53:47.410Z,41.20
2022-07-30T05:56:49.727Z,43.00
2022-07-30T05:59:51.501Z,41.70
2022-07-30T06:02:53.215Z,41.80
2022-07-30T06:05:54.956Z,40.30
2022-07-30T06:08:56.655Z,38.00
2022-07-30T06:11:58.395Z,38.30
2022-07-30T06:15:00.184Z,38.20
2022-07-30T06:18:02.461Z,31.20
2022-07-30T06:21:04.458Z,34.90
2022-07-30T06:24:06.759Z,34.70
2022-07-30T06:27:08.720Z,35.90
2022-07-30T06:30:12.056Z,36.20
2022-07-30T06:33:13.798Z,32.30
2022-07-30T06:36:15.666Z,30.70
2022-07-30T06:39:56.141Z,34.10
2022-07-30T06:42:39.522Z,31.10
2022-07-30T06:45:43.615Z,32.40
2022-07-30T06:48:45.476Z,28.90
2022-07-30T06:51:47.248Z,34.30
2022-07-30T06:54:48.916Z,29.60
2022-07-30T06:57:50.653Z,28.70
2022-07-30T07:00:52.366Z,27.50
2022-07-30T07:03:54.288Z,27.10
2022-07-30T07:06:56.056Z,28.30
2022-07-30T07:09:57.900Z,25.30
2022-07-30T07:13:00.777Z,24.20
2022-07-30T07:16:02.795Z,27.90
2022-07-30T07:19:04.616Z,27.30
2022-07-30T07:22:06.353Z,25.10
2022-07-30T07:25:08.675Z,26.00
2022-07-30T07:28:11.944Z,24.90
2022-07-30T07:32:07.350Z,22.90
2022-07-30T07:34:36.599Z,23.20
2022-07-30T07:37:38.344Z,22.60
2022-07-30T07:40:40.855Z,20.90
2022-07-30T07:43:42.585Z,24.10
2022-07-30T07:46:44.395Z,21.60
2022-07-30T07:49:46.134Z,24.30
2022-07-30T07:52:47.922Z,21.80
2022-07-30T07:55:49.683Z,22.00
2022-07-30T07:58:56.677Z,20.70
2022-07-30T08:01:58.625Z,23.20
2022-07-30T08:05:06.428Z,20.40
2022-07-30T08:08:08.246Z,20.30
2022-07-30T08:11:10.095Z,24.60
2022-07-30T08:14:11.910Z,20.70
2022-07-30T08:17:14.223Z,19.30
2022-07-30T08:20:19.243Z,17.60
2022-07-30T08:23:22.582Z,20.40
2022-07-30T08:26:24.261Z,20.10
2022-07-30T08:29:26.041Z,20.20
2022-07-30T08:32:27.806Z,20.40
2022-07-30T08:35:30.958Z,19.10
2022-07-30T08:38:32.731Z,20.10
2022-07-30T08:41:36.558Z,18.80
2022-07-30T08:44:38.800Z,18.70
2022-07-30T08:47:41.366Z,22.10
2022-07-30T08:50:45.233Z,22.00
2022-07-30T08:53:47.305Z,20.80
2022-07-30T08:56:50.301Z,18.20
2022-07-30T09:00:00.080Z,20.20
2022-07-30T09:06:05.725Z,21.50
2022-07-30T09:09:07.618Z,18.40
2022-07-30T09:12:34.896Z,19.70
2022-07-30T09:15:38.982Z,19.50
2022-07-30T09:18:44.632Z,18.00
2022-07-30T09:22:00.835Z,16.70
2022-07-30T09:25:02.759Z,20.10
2022-07-30T09:28:15.843Z,19.70
2022-07-30T09:31:20.609Z,17.60
2022-07-30T09:34:29.795Z,19.10
2022-07-30T09:37:31.487Z,20.40
2022-07-30T09:40:33.984Z,18.80
2022-07-30T09:43:47.566Z,18.30
2022-07-30T09:46:52.026Z,18.90
2022-07-30T09:50:07.135Z,19.20
2022-07-30T09:53:11.877Z,17.10
2022-07-30T09:56:25.702Z,15.60
2022-07-30T09:59:34.996Z,18.00
2022-07-30T10:02:37.830Z,17.20
2022-07-30T10:05:51.724Z,17.60
2022-07-30T10:08:54.953Z,17.60
2022-07-30T10:12:00.207Z,17.20
2022-07-30T10:15:07.392Z,18.10
2022-07-30T10:18:09.229Z,17.60
2022-07-30T10:21:11.611Z,18.30
2022-07-30T10:24:16.742Z,18.20
2022-07-30T10:27:28.964Z,16.40
2022-07-30T10:30:34.107Z,16.70
2022-07-30T10:33:40.147Z,19.90
2022-07-30T10:36:45.053Z,17.00
2022-07-30T10:40:07.742Z,16.20
2022-07-30T10:43:23.567Z,16.70
2022-07-30T10:47:07.657Z,15.60
2022-07-30T10:50:22.334Z,17.70
2022-07-30T10:53:48.612Z,17.20
2022-07-30T10:57:04.243Z,15.30
2022-07-30T11:00:06.028Z,16.60
2022-07-30T11:03:41.080Z,17.50
2022-07-30T11:06:47.664Z,17.00
2022-07-30T11:10:05.280Z,16.50
2022-07-30T11:13:11.428Z,16.70
2022-07-30T11:16:13.303Z,15.80
2022-07-30T11:19:55.046Z,15.60
2022-07-30T11:22:44.589Z,15.00
2022-07-30T11:25:51.000Z,14.40
2022-07-30T11:28:53.979Z,16.00
2022-07-30T11:31:58.641Z,16.40
2022-07-30T11:35:24.501Z,13.40
2022-07-30T11:38:26.344Z,12.40
2022-07-30T11:41:28.058Z,15.40
2022-07-30T11:44:30.270Z,12.40
2022-07-30T11:47:32.273Z,15.00
2022-07-30T11:50:35.439Z,12.80
2022-07-30T11:53:37.303Z,14.60
2022-07-30T11:57:04.088Z,12.30
2022-07-30T12:00:07.158Z,15.30
2022-07-30T12:03:11.711Z,14.20
2022-07-30T12:06:19.942Z,16.50
2022-07-30T12:09:27.556Z,17.60
2022-07-30T12:12:29.653Z,14.40
2022-07-30T12:15:33.317Z,14.40
2022-07-30T12:18:35.431Z,15.20
2022-07-30T12:21:37.591Z,14.60
2022-07-30T12:24:39.321Z,18.70
2022-07-30T12:27:52.035Z,19.30
2022-07-30T12:30:55.441Z,18.10
2022-07-30T12:33:59.140Z,14.10
2022-07-30T12:37:10.263Z,13.50
2022-07-30T12:40:15.284Z,15.20
2022-07-30T12:43:17.623Z,16.70
2022-07-30T12:46:27.227Z,15.60
2022-07-30T12:49:36.795Z,14.80
2022-07-30T12:52:48.965Z,13.00
2022-07-30T12:55:50.638Z,15.80
2022-07-30T12:58:53.644Z,16.90
2022-07-30T13:01:57.505Z,18.20
2022-07-30T13:05:11.125Z,15.30
2022-07-30T13:08:14.013Z,13.60
2022-07-30T13:11:17.218Z,16.10
2022-07-30T13:14:19.494Z,16.80
2022-07-30T13:17:28.343Z,15.20
2022-07-30T13:20:30.504Z,13.90
2022-07-30T13:23:34.712Z,13.90
2022-07-30T13:26:36.799Z,19.30
2022-07-30T13:29:38.544Z,13.70
2022-07-30T13:32:40.342Z,12.60
2022-07-30T13:35:42.482Z,12.90
2022-07-30T13:38:45.605Z,12.90
2022-07-30T13:41:54.029Z,14.50
2022-07-30T13:44:55.786Z,13.10
2022-07-30T13:47:57.486Z,17.90
2022-07-30T13:51:03.764Z,14.20
2022-07-30T13:54:05.536Z,12.70
2022-07-30T13:57:07.375Z,15.50
2022-07-30T14:00:09.771Z,18.40
2022-07-30T14:03:11.965Z,14.60
2022-07-30T14:06:13.724Z,13.40
2022-07-30T14:09:15.629Z,14.70
2022-07-30T14:12:17.394Z,17.70
2022-07-30T14:15:19.081Z,17.90
2022-07-30T14:18:20.903Z,15.90
2022-07-30T14:21:22.669Z,18.70
2022-07-30T14:24:24.386Z,15.00
2022-07-30T14:27:26.550Z,13.50
2022-07-30T14:30:28.398Z,20.30
2022-07-30T14:33:30.112Z,20.40
2022-07-30T14:36:32.774Z,18.30
2022-07-30T14:39:34.617Z,18.80
2022-07-30T14:42:36.603Z,18.50
2022-07-30T14:45:39.301Z,16.20
2022-07-30T14:48:41.127Z,17.70
2022-07-30T14:51:43.002Z,15.50
2022-07-30T14:54:44.817Z,20.10
2022-07-30T14:57:48.056Z,18.10
2022-07-30T15:00:49.754Z,19.40
2022-07-30T15:03:51.794Z,18.60
2022-07-30T15:06:53.462Z,16.40
2022-07-30T15:09:55.387Z,19.00
2022-07-30T15:12:57.394Z,17.40
2022-07-30T15:15:59.813Z,20.30
2022-07-30T15:19:01.593Z,21.60
2022-07-30T15:22:04.303Z,18.40
2022-07-30T15:25:06.824Z,18.70
2022-07-30T15:28:08.900Z,18.00
2022-07-30T15:31:10.856Z,18.90
2022-07-30T15:34:12.883Z,20.60
2022-07-30T15:37:15.761Z,21.30
2022-07-30T15:40:17.635Z,22.60
2022-07-30T15:43:19.361Z,26.70
2022-07-30T15:46:21.123Z,23.70
2022-07-30T15:49:23.082Z,24.70
2022-07-30T15:52:24.862Z,24.70
2022-07-30T15:55:27.186Z,25.00
2022-07-30T15:58:29.059Z,25.60
2022-07-30T16:01:30.892Z,28.20
2022-07-30T16:04:33.200Z,25.80
2022-07-30T16:07:35.025Z,28.80
2022-07-30T16:10:37.927Z,26.60
2022-07-30T16:13:39.603Z,29.20
2022-07-30T16:16:41.656Z,28.50
2022-07-30T16:19:45.065Z,29.20
2022-07-30T16:22:47.548Z,27.40
2022-07-30T16:25:49.380Z,33.10
2022-07-30T16:28:51.156Z,29.00
2022-07-30T16:31:53.056Z,33.30
2022-07-30T16:34:54.952Z,29.70
2022-07-30T16:38:02.805Z,28.70
2022-07-30T16:41:04.720Z,31.60
2022-07-30T16:44:06.532Z,30.30
2022-07-30T16:47:13.616Z,30.00
2022-07-30T16:50:15.943Z,30.70
2022-07-30T16:53:18.502Z,31.80
2022-07-30T16:56:20.299Z,31.30
2022-07-30T16:59:22.798Z,30.00
2022-07-30T17:02:25.507Z,31.60
2022-07-30T17:05:27.400Z,30.10
2022-07-30T17:08:29.147Z,31.00
2022-07-30T17:11:47.273Z,32.80
2022-07-30T17:14:49.880Z,33.20
2022-07-30T17:17:51.959Z,34.80
2022-07-30T17:20:54.289Z,36.20
2022-07-30T17:23:56.442Z,35.40
2022-07-30T17:26:58.297Z,37.30
2022-07-30T17:30:01.523Z,39.10
2022-07-30T17:33:06.295Z,39.90
2022-07-30T17:36:08.822Z,37.70
2022-07-30T17:39:10.520Z,37.10
2022-07-30T17:42:32.296Z,39.20
2022-07-30T17:45:35.771Z,40.60
2022-07-30T17:48:37.504Z,39.60
2022-07-30T17:51:39.826Z,39.20
2022-07-30T17:54:42.749Z,40.50
2022-07-30T17:57:45.619Z,41.60
2022-07-30T18:00:49.042Z,42.30
2022-07-30T18:03:50.983Z,38.70
2022-07-30T18:06:52.844Z,39.40
2022-07-30T18:09:55.102Z,35.80
2022-07-30T18:12:57.556Z,38.20
2022-07-30T18:15:59.464Z,43.50
2022-07-30T18:19:01.384Z,45.10
2022-07-30T18:22:04.550Z,46.00
2022-07-30T18:25:07.615Z,50.20
2022-07-30T18:28:09.729Z,53.50
2022-07-30T18:31:13.514Z,54.50
2022-07-30T18:34:15.556Z,51.80
2022-07-30T18:37:17.392Z,53.80
2022-07-30T18:40:23.650Z,60.50
2022-07-30T18:43:29.569Z,60.80
2022-07-30T18:46:31.514Z,58.30
2022-07-30T18:49:37.833Z,58.90
2022-07-30T18:52:40.398Z,60.00
2022-07-30T18:55:43.640Z,58.60
2022-07-30T18:58:45.924Z,59.70
2022-07-30T19:01:47.803Z,54.60
2022-07-30T19:04:49.687Z,49.40
2022-07-30T19:07:57.316Z,44.20
2022-07-30T19:11:01.075Z,44.80
2022-07-30T19:14:02.831Z,45.60
2022-07-30T19:17:13.652Z,46.00
2022-07-30T19:20:16.212Z,36.00
2022-07-30T19:23:18.748Z,32.60
2022-07-30T19:26:20.579Z,32.50
2022-07-30T19:29:22.331Z,33.90
2022-07-30T19:32:24.881Z,34.40
2022-07-30T19:35:26.645Z,34.90
2022-07-30T19:38:28.938Z,32.70
2022-07-30T19:41:35.781Z,35.10
2022-07-30T19:44:41.179Z,33.00
2022-07-30T19:47:43.299Z,33.20
2022-07-30T19:50:46.520Z,35.50
2022-07-30T19:53:48.998Z,33.40
2022-07-30T19:56:50.965Z,30.10
2022-07-30T20:00:00.104Z,30.10
2022-07-30T20:03:06.047Z,28.00
2022-07-30T20:06:08.417Z,26.20
2022-07-30T20:09:17.069Z,37.60
2022-07-30T20:12:18.928Z,26.80
2022-07-30T20:15:20.700Z,28.70
2022-07-30T20:18:29.128Z,29.50
2022-07-30T20:21:56.511Z,32.30
2022-07-30T20:24:53.652Z,33.80
2022-07-30T20:27:55.583Z,34.00
2022-07-30T20:30:59.752Z,37.40
2022-07-30T20:34:02.262Z,43.30
2022-07-30T20:37:16.601Z,46.40
2022-07-30T20:40:26.637Z,43.20
2022-07-30T20:43:29.250Z,48.00
2022-07-30T20:46:32.134Z,45.00
2022-07-30T20:49:35.799Z,45.70
2022-07-30T20:52:40.473Z,49.20
2022-07-30T20:55:42.949Z,53.70
2022-07-30T20:58:47.307Z,57.60
2022-07-30T21:01:50.129Z,61.20
2022-07-30T21:04:56.703Z,66.00
2022-07-30T21:08:01.552Z,67.60
2022-07-30T21:11:04.026Z,67.60
2022-07-30T21:14:09.938Z,71.70
2022-07-30T21:17:12.347Z,70.20
2022-07-30T21:20:14.276Z,67.60
2022-07-30T21:23:27.186Z,64.90
2022-07-30T21:26:29.404Z,61.30
2022-07-30T21:29:31.807Z,55.60
2022-07-30T21:32:33.718Z,47.80
2022-07-30T21:35:36.750Z,37.70
2022-07-30T21:38:42.940Z,37.90
2022-07-30T21:41:44.630Z,36.70
2022-07-30T21:44:46.432Z,38.80
2022-07-30T21:47:48.364Z,39.40
2022-07-30T21:50:51.072Z,41.60
2022-07-30T21:53:52.739Z,42.70
2022-07-30T21:56:56.345Z,43.20
2022-07-30T21:59:59.921Z,43.60
2022-07-30T22:03:01.786Z,40.20
2022-07-30T22:06:17.794Z,39.50
2022-07-30T22:09:33.466Z,41.20
2022-07-30T22:12:35.941Z,41.70
2022-07-30T22:15:39.026Z,40.90
2022-07-30T22:18:41.281Z,41.10
2022-07-30T22:21:46.963Z,42.80
2022-07-30T22:24:49.499Z,45.90
2022-07-30T22:27:56.905Z,41.10
2022-07-30T22:30:59.103Z,37.90
2022-07-30T22:34:00.846Z,38.80
2022-07-30T22:37:02.696Z,36.90
2022-07-30T22:40:08.288Z,34.70
2022-07-30T22:43:12.779Z,37.70
2022-07-30T22:46:30.556Z,37.90
2022-07-30T22:49:46.389Z,33.30
2022-07-30T22:52:58.623Z,36.20
2022-07-30T22:56:20.310Z,32.60
2022-07-30T22:59:29.134Z,33.80
2022-07-30T23:02:48.802Z,34.80
2022-07-30T23:05:55.131Z,34.60
2022-07-30T23:08:58.958Z,37.50
2022-07-30T23:12:01.973Z,46.60
2022-07-30T23:15:05.932Z,54.40
2022-07-30T23:18:07.653Z,64.90
2022-07-30T23:21:10.070Z,58.50
2022-07-30T23:24:11.964Z,60.40
2022-07-30T23:27:19.699Z,62.70
2022-07-30T23:30:21.486Z,63.20
2022-07-30T23:33:23.228Z,62.20
2022-07-30T23:36:25.130Z,55.70
2022-07-30T23:39:26.952Z,60.60
2022-07-30T23:42:28.910Z,57.70
2022-07-30T23:45:30.723Z,69.30
2022-07-30T23:48:32.462Z,70.60
2022-07-30T23:51:34.213Z,71.00
2022-07-30T23:54:36.840Z,76.00
2022-07-30T23:57:39.490Z,66.40
